Washington, District of Columbia
Traffic Map
Current Weather Conditions
Washington, District of Columbia
Broken Clouds Haze
Broken Clouds
73°
Feels Like: 73°
Wind Chill: 73° Ceiling: 25000
Heat Index: 73° Visibility: 6mi
Dew Point: 70° Wind: 3mph
Humidity: 90% Direction: 10° (N)
Pressure: 29.88in Gusts: 0mph
Raw Report DataKDCA 020852Z 01003KT 6SM BR FEW050 BKN250 23/21 A2988 RMK AO2 SLP116 T02280211 56009 $
Traffic Incident Summary
Active as of:
Severity:
Category:
InformationThere was an issue retrieving the traffic information for this location. Please try a different location or try again shortly.
Advertisements
Track Severe Weather on mobile